Time;durP1;ratioP1;P1;durP2;ratioP2;P2;SDS_P1;SDS_P2;PMS_P1;PMS_P2;Temp;Humidity;BMP_temperature;BMP_pressure;BME280_temperature;BME280_humidity;BME280_pressure;Samples;Min_cycle;Max_cycle;Signal;HPM_P1;HPM_P2
2022/08/22 00:00:15;;;;;;;;;;;16.80;99.90;;;;;;5092086;28;19969;-75
2022/08/22 00:02:53;;;;;;;;;;;16.90;99.90;;;;;;5126854;27;19926;-75
2022/08/22 00:05:28;;;;;;;;;;;16.90;99.90;;;;;;5091854;28;19920;-75
2022/08/22 00:08:10;;;;;;;;;;;16.80;99.90;;;;;;5096603;28;19946;-76
2022/08/22 00:10:45;;;;;;;;;;;16.90;99.90;;;;;;5091805;28;19932;-75
2022/08/22 00:13:24;;;;;;;;;;;16.80;99.90;;;;;;5092051;28;19920;-75
2022/08/22 00:16:01;;;;;;;;;;;16.90;99.90;;;;;;5092116;28;19996;-76
2022/08/22 00:18:31;;;;;;;;;;;16.90;99.90;;;;;;5093442;28;19924;-75
2022/08/22 00:21:03;;;;;;;;;;;16.90;99.90;;;;;;5109167;28;19927;-75
2022/08/22 00:23:44;;;;;;;;;;;16.90;99.90;;;;;;5092792;28;20032;-75
2022/08/22 00:26:28;;;;;;;;;;;16.90;99.90;;;;;;5075299;28;19928;-75
2022/08/22 00:29:03;;;;;;;;;;;16.90;99.90;;;;;;5108573;28;19977;-75
2022/08/22 00:31:36;;;;;;;;;;;16.90;99.90;;;;;;5091804;28;19932;-74
2022/08/22 00:34:14;;;;;;;;;;;16.90;99.90;;;;;;5075421;28;19969;-75
2022/08/22 00:36:52;;;;;;;;;;;16.80;99.90;;;;;;5093105;28;20340;-75
2022/08/22 00:39:26;;;;;;;;;;;16.80;99.90;;;;;;5075374;28;20429;-75
2022/08/22 00:42:07;;;;;;;;;;;16.80;99.90;;;;;;5074975;28;19920;-80
2022/08/22 00:44:40;;;;;;;;;;;16.80;99.90;;;;;;5091433;28;20007;-75
2022/08/22 00:47:18;;;;;;;;;;;16.80;99.90;;;;;;5073078;28;19924;-74
2022/08/22 00:50:02;;;;;;;;;;;16.80;99.90;;;;;;5092921;28;19923;-74
2022/08/22 00:52:28;;;;;;;;;;;16.80;99.90;;;;;;5091652;28;19920;-75
2022/08/22 00:54:59;;;;;;;;;;;16.80;99.90;;;;;;5099392;28;19927;-78
2022/08/22 00:57:30;;;;;;;;;;;16.80;99.90;;;;;;5091720;28;19934;-75
2022/08/22 00:59:58;;;;;;;;;;;16.80;99.90;;;;;;5074784;28;19920;-75
2022/08/22 01:02:30;;;;;;;;;;;16.80;99.90;;;;;;5091955;28;19920;-75
2022/08/22 01:05:15;;;;;;;;;;;16.70;99.90;;;;;;5125348;28;20369;-75
2022/08/22 01:08:00;;;;;;;;;;;16.70;99.90;;;;;;5075020;28;19975;-77
2022/08/22 01:10:31;;;;;;;;;;;16.80;99.90;;;;;;5074960;28;19971;-78
2022/08/22 01:12:57;;;;;;;;;;;16.70;99.90;;;;;;5092391;28;19921;-78
2022/08/22 01:15:25;;;;;;;;;;;16.70;99.90;;;;;;5108283;28;19928;-77
2022/08/22 01:18:13;;;;;;;;;;;16.70;99.90;;;;;;5078369;28;19963;-77
2022/08/22 01:20:41;;;;;;;;;;;16.70;99.90;;;;;;5109780;27;19927;-77
2022/08/22 01:23:26;;;;;;;;;;;16.60;99.90;;;;;;5108574;28;19944;-77
2022/08/22 01:26:10;;;;;;;;;;;16.60;99.90;;;;;;5078730;28;19927;-77
2022/08/22 01:28:54;;;;;;;;;;;16.50;99.90;;;;;;5080035;28;19920;-77
2022/08/22 01:31:32;;;;;;;;;;;16.50;99.90;;;;;;5075235;28;20011;-77
2022/08/22 01:34:16;;;;;;;;;;;16.40;99.90;;;;;;5095774;28;19943;-83
2022/08/22 01:36:42;;;;;;;;;;;16.40;99.90;;;;;;5095324;28;19920;-77
2022/08/22 01:39:14;;;;;;;;;;;16.30;99.90;;;;;;5098117;28;20033;-77
2022/08/22 01:41:45;;;;;;;;;;;16.30;99.90;;;;;;5075428;28;19928;-77
2022/08/22 01:44:16;;;;;;;;;;;16.30;99.90;;;;;;5113095;27;19959;-77
2022/08/22 01:46:47;;;;;;;;;;;16.20;99.90;;;;;;5095196;28;19920;-77
2022/08/22 01:49:25;;;;;;;;;;;16.20;99.90;;;;;;5095976;28;19927;-77
2022/08/22 01:52:04;;;;;;;;;;;16.10;99.90;;;;;;5071447;28;20020;-77
2022/08/22 01:54:42;;;;;;;;;;;16.10;99.90;;;;;;5112026;28;19928;-77
2022/08/22 01:57:08;;;;;;;;;;;16.00;99.90;;;;;;5085989;28;20401;-78
2022/08/22 01:59:37;;;;;;;;;;;16.00;99.90;;;;;;5095821;28;19920;-77
2022/08/22 02:02:21;;;;;;;;;;;15.90;99.90;;;;;;5096000;28;20007;-78
2022/08/22 02:04:51;;;;;;;;;;;16.00;99.90;;;;;;5078080;28;19947;-77
2022/08/22 02:07:32;;;;;;;;;;;15.90;99.90;;;;;;5128695;27;19920;-78
2022/08/22 02:09:58;;;;;;;;;;;15.90;99.90;;;;;;5078358;28;19920;-78
2022/08/22 02:12:36;;;;;;;;;;;15.80;99.90;;;;;;5128497;27;20053;-77
2022/08/22 02:15:06;;;;;;;;;;;15.80;99.90;;;;;;5078989;28;19937;-78
2022/08/22 02:17:34;;;;;;;;;;;15.80;99.90;;;;;;5111098;28;20201;-77
2022/08/22 02:20:11;;;;;;;;;;;15.80;99.90;;;;;;5111959;28;19964;-77
2022/08/22 02:22:50;;;;;;;;;;;15.80;99.90;;;;;;5111628;28;19927;-77
2022/08/22 02:25:20;;;;;;;;;;;15.80;99.90;;;;;;5128732;27;19923;-78
2022/08/22 02:27:45;;;;;;;;;;;15.70;99.90;;;;;;5089932;28;19924;-78
2022/08/22 02:30:17;;;;;;;;;;;15.70;99.90;;;;;;5077193;28;20340;-77
2022/08/22 02:33:05;;;;;;;;;;;15.70;99.90;;;;;;5094566;28;19920;-77
2022/08/22 02:35:32;;;;;;;;;;;15.70;99.90;;;;;;5094461;28;19981;-77
2022/08/22 02:38:13;;;;;;;;;;;15.70;99.90;;;;;;5099968;28;19920;-78
2022/08/22 02:40:42;;;;;;;;;;;15.60;99.90;;;;;;5127643;27;19920;-77
2022/08/22 02:43:17;;;;;;;;;;;15.60;99.90;;;;;;5093776;28;19927;-78
2022/08/22 02:45:42;;;;;;;;;;;15.60;99.90;;;;;;5077254;28;19927;-77
2022/08/22 02:48:17;;;;;;;;;;;15.60;99.90;;;;;;5112431;28;19919;-78
2022/08/22 02:51:12;;;;;;;;;;;15.60;99.90;;;;;;5097268;28;19920;-77
2022/08/22 02:53:44;;;;;;;;;;;15.50;99.90;;;;;;5084836;28;19920;-77
2022/08/22 02:56:17;;;;;;;;;;;15.50;99.90;;;;;;5093883;28;19927;-78
2022/08/22 02:58:58;;;;;;;;;;;15.50;99.90;;;;;;5068655;28;19924;-77
2022/08/22 03:01:23;;;;;;;;;;;15.50;99.90;;;;;;5105537;28;20360;-77
2022/08/22 03:03:49;;;;;;;;;;;15.50;99.90;;;;;;5077083;28;19978;-77
2022/08/22 03:06:33;;;;;;;;;;;15.50;99.90;;;;;;5076905;28;19920;-78
2022/08/22 03:09:01;;;;;;;;;;;15.50;99.90;;;;;;5073742;28;20006;-78
2022/08/22 03:11:28;;;;;;;;;;;15.50;99.90;;;;;;5099864;28;19921;-78
2022/08/22 03:13:54;;;;;;;;;;;15.50;99.90;;;;;;5081761;28;19928;-78
2022/08/22 03:16:26;;;;;;;;;;;15.40;99.90;;;;;;5097397;28;19920;-78
2022/08/22 03:18:56;;;;;;;;;;;15.40;99.90;;;;;;5127502;27;19920;-80
2022/08/22 03:21:39;;;;;;;;;;;15.30;99.90;;;;;;5074395;28;19920;-78
2022/08/22 03:24:05;;;;;;;;;;;15.30;99.90;;;;;;5096426;28;20320;-78
2022/08/22 03:26:48;;;;;;;;;;;15.30;99.90;;;;;;5086124;28;20087;-77
2022/08/22 03:29:23;;;;;;;;;;;15.20;99.90;;;;;;5078355;28;19973;-78
2022/08/22 03:32:06;;;;;;;;;;;15.20;99.90;;;;;;5093140;28;20353;-77
2022/08/22 03:34:32;;;;;;;;;;;15.10;99.90;;;;;;5109975;28;20390;-78
2022/08/22 03:37:04;;;;;;;;;;;15.10;99.90;;;;;;5093518;28;20378;-78
2022/08/22 03:39:56;;;;;;;;;;;15.10;99.90;;;;;;5093419;28;19920;-77
2022/08/22 03:42:34;;;;;;;;;;;15.10;99.90;;;;;;5072497;28;19920;-78
2022/08/22 03:45:08;;;;;;;;;;;15.10;99.90;;;;;;5092635;28;20263;-78
2022/08/22 03:47:53;;;;;;;;;;;15.10;99.90;;;;;;5092700;28;19931;-77
2022/08/22 03:50:25;;;;;;;;;;;15.10;99.90;;;;;;5093006;28;19927;-78
2022/08/22 03:53:09;;;;;;;;;;;15.10;99.90;;;;;;5092476;28;19927;-77
2022/08/22 03:55:40;;;;;;;;;;;15.00;99.90;;;;;;5075753;28;20125;-77
2022/08/22 03:58:12;;;;;;;;;;;15.00;99.90;;;;;;5075870;28;19924;-78
2022/08/22 04:00:53;;;;;;;;;;;15.00;99.90;;;;;;5098332;28;19920;-77
2022/08/22 04:03:39;;;;;;;;;;;15.00;99.90;;;;;;5092006;28;20405;-78
2022/08/22 04:06:07;;;;;;;;;;;15.00;99.90;;;;;;5127221;27;19927;-77
2022/08/22 04:08:54;;;;;;;;;;;15.00;99.90;;;;;;5075798;28;19920;-77
2022/08/22 04:11:38;;;;;;;;;;;14.90;99.90;;;;;;5109166;28;19927;-77
2022/08/22 04:14:26;;;;;;;;;;;14.90;99.90;;;;;;5074844;28;20410;-77
2022/08/22 04:16:59;;;;;;;;;;;14.90;99.90;;;;;;5088554;28;19927;-77
2022/08/22 04:19:52;;;;;;;;;;;14.80;99.90;;;;;;5126703;27;20066;-78
2022/08/22 04:22:33;;;;;;;;;;;14.80;99.90;;;;;;5072306;28;19927;-84
2022/08/22 04:24:59;;;;;;;;;;;14.80;99.90;;;;;;5084007;28;19983;-77
2022/08/22 04:27:28;;;;;;;;;;;14.80;99.90;;;;;;5093797;28;20376;-78
2022/08/22 04:30:13;;;;;;;;;;;14.80;99.90;;;;;;5089265;28;19989;-78
2022/08/22 04:32:43;;;;;;;;;;;14.80;99.90;;;;;;5095179;28;20022;-77
2022/08/22 04:35:17;;;;;;;;;;;14.70;99.90;;;;;;5096518;28;19923;-77
2022/08/22 04:37:46;;;;;;;;;;;14.70;99.90;;;;;;5085678;28;19920;-77
2022/08/22 04:40:24;;;;;;;;;;;14.70;99.90;;;;;;5126374;27;19959;-77
2022/08/22 04:42:53;;;;;;;;;;;14.70;99.90;;;;;;5093080;28;19920;-80
2022/08/22 04:45:22;;;;;;;;;;;14.70;99.90;;;;;;5109590;28;19920;-78
2022/08/22 04:47:51;;;;;;;;;;;14.70;99.90;;;;;;5121642;28;19927;-77
2022/08/22 04:50:23;;;;;;;;;;;14.80;99.90;;;;;;5075598;28;20305;-79
2022/08/22 04:52:58;;;;;;;;;;;14.80;99.90;;;;;;5096261;28;20280;-77
2022/08/22 04:55:32;;;;;;;;;;;14.80;99.90;;;;;;5130350;27;19920;-78
2022/08/22 04:58:23;;;;;;;;;;;14.90;99.90;;;;;;5130535;27;19920;-77
2022/08/22 05:01:13;;;;;;;;;;;14.90;99.90;;;;;;5117221;27;20007;-77
2022/08/22 05:03:42;;;;;;;;;;;15.00;99.90;;;;;;5096585;28;19965;-77
2022/08/22 05:06:09;;;;;;;;;;;15.00;99.90;;;;;;5096000;28;19920;-77
2022/08/22 05:08:38;;;;;;;;;;;15.00;99.90;;;;;;5108649;28;19927;-77
2022/08/22 05:11:05;;;;;;;;;;;15.10;99.90;;;;;;5095674;28;19920;-77
2022/08/22 05:13:33;;;;;;;;;;;15.10;99.90;;;;;;5104289;28;19923;-78
2022/08/22 05:16:02;;;;;;;;;;;15.20;99.90;;;;;;5080569;28;19927;-77
2022/08/22 05:18:34;;;;;;;;;;;15.20;99.90;;;;;;5102756;28;19963;-78
2022/08/22 05:21:03;;;;;;;;;;;15.30;99.90;;;;;;5089600;28;19924;-78
2022/08/22 05:23:33;;;;;;;;;;;15.30;99.90;;;;;;5097015;28;19986;-77
2022/08/22 05:26:01;;;;;;;;;;;15.40;99.90;;;;;;5113284;28;19927;-77
2022/08/22 05:28:37;;;;;;;;;;;15.50;99.90;;;;;;5080819;28;19989;-77
2022/08/22 05:31:05;;;;;;;;;;;15.60;99.90;;;;;;5103308;28;20360;-78
2022/08/22 05:33:38;;;;;;;;;;;15.60;99.90;;;;;;5095062;28;19920;-78
2022/08/22 05:36:07;;;;;;;;;;;15.60;99.90;;;;;;5078588;28;19928;-77
2022/08/22 05:38:35;;;;;;;;;;;15.70;99.90;;;;;;5078484;28;20002;-78
2022/08/22 05:41:08;;;;;;;;;;;15.70;99.90;;;;;;5078681;28;19923;-77
2022/08/22 05:43:36;;;;;;;;;;;15.70;99.90;;;;;;5095480;28;19982;-78
2022/08/22 05:46:05;;;;;;;;;;;15.70;99.90;;;;;;5129344;27;19946;-78
2022/08/22 05:48:36;;;;;;;;;;;15.70;99.90;;;;;;5112156;28;20260;-78
2022/08/22 05:51:13;;;;;;;;;;;15.70;99.90;;;;;;5078300;28;20274;-78
2022/08/22 05:53:42;;;;;;;;;;;15.60;99.90;;;;;;5128972;27;19929;-79
2022/08/22 05:56:11;;;;;;;;;;;15.60;99.90;;;;;;5131266;27;19926;-75
2022/08/22 05:59:01;;;;;;;;;;;15.60;99.90;;;;;;5103512;28;19928;-76
2022/08/22 06:01:42;;;;;;;;;;;15.60;99.90;;;;;;5113461;28;19942;-77
2022/08/22 06:04:11;;;;;;;;;;;15.60;99.90;;;;;;5091970;28;19968;-76
2022/08/22 06:06:38;;;;;;;;;;;15.60;99.90;;;;;;5094647;28;19924;-77
2022/08/22 06:09:04;;;;;;;;;;;15.60;99.90;;;;;;5078210;28;19927;-76
2022/08/22 06:11:41;;;;;;;;;;;15.70;99.90;;;;;;5111998;28;19920;-76
2022/08/22 06:14:07;;;;;;;;;;;15.70;99.90;;;;;;5078217;28;19920;-76
2022/08/22 06:16:47;;;;;;;;;;;15.70;99.90;;;;;;5120300;27;20371;-76
2022/08/22 06:19:16;;;;;;;;;;;15.60;99.90;;;;;;5115237;28;19963;-76
2022/08/22 06:21:43;;;;;;;;;;;15.60;99.90;;;;;;5095561;28;19927;-76
2022/08/22 06:24:14;;;;;;;;;;;15.60;99.90;;;;;;5083414;28;19926;-76
2022/08/22 06:26:42;;;;;;;;;;;15.60;99.90;;;;;;5094720;28;19965;-76
2022/08/22 06:29:08;;;;;;;;;;;15.60;99.90;;;;;;5091516;28;19927;-77
2022/08/22 06:31:40;;;;;;;;;;;15.60;99.90;;;;;;5094689;28;19964;-79
2022/08/22 06:34:09;;;;;;;;;;;15.60;99.90;;;;;;5095812;28;19920;-79
2022/08/22 06:36:36;;;;;;;;;;;15.60;99.90;;;;;;5104522;27;19920;-80
2022/08/22 06:39:02;;;;;;;;;;;15.70;99.90;;;;;;5089005;28;19955;-77
2022/08/22 06:41:31;;;;;;;;;;;15.60;99.90;;;;;;5092036;28;19969;-76
2022/08/22 06:43:57;;;;;;;;;;;15.70;99.90;;;;;;5091875;28;19971;-75
2022/08/22 06:46:25;;;;;;;;;;;15.70;99.90;;;;;;5091874;28;19927;-76
2022/08/22 06:48:53;;;;;;;;;;;15.80;99.90;;;;;;5085124;28;19927;-76
2022/08/22 06:51:19;;;;;;;;;;;15.80;99.90;;;;;;5088915;28;20371;-76
2022/08/22 06:53:46;;;;;;;;;;;15.90;99.90;;;;;;5108434;28;19928;-77
2022/08/22 06:56:18;;;;;;;;;;;16.00;99.90;;;;;;5089904;28;19931;-75
2022/08/22 06:58:44;;;;;;;;;;;16.10;99.90;;;;;;5101449;28;19921;-78
2022/08/22 07:01:15;;;;;;;;;;;16.20;99.90;;;;;;5074156;28;19924;-78
2022/08/22 07:03:57;;;;;;;;;;;16.40;99.90;;;;;;5074885;28;19963;-78
2022/08/22 07:06:27;;;;;;;;;;;16.50;99.90;;;;;;5118658;27;20015;-78
2022/08/22 07:08:54;;;;;;;;;;;16.80;99.90;;;;;;5056659;28;19920;-78
2022/08/22 07:11:28;;;;;;;;;;;16.90;99.90;;;;;;5079046;28;19966;-79
2022/08/22 07:13:56;;;;;;;;;;;17.10;99.90;;;;;;5085734;28;19927;-80
2022/08/22 07:16:31;;;;;;;;;;;17.30;99.90;;;;;;5107155;28;19920;-78
2022/08/22 07:18:57;;;;;;;;;;;17.40;99.90;;;;;;5107437;28;20371;-78
2022/08/22 07:21:28;;;;;;;;;;;17.70;99.90;;;;;;5117275;27;19923;-79
2022/08/22 07:23:54;;;;;;;;;;;17.80;99.90;;;;;;5121616;27;19920;-77
2022/08/22 07:26:26;;;;;;;;;;;18.00;99.90;;;;;;5068357;28;19920;-77
2022/08/22 07:29:11;;;;;;;;;;;18.10;99.90;;;;;;5073087;28;19928;-79
2022/08/22 07:31:52;;;;;;;;;;;18.20;99.90;;;;;;5085908;28;19920;-79
2022/08/22 07:34:30;;;;;;;;;;;18.30;99.90;;;;;;5096315;28;19970;-80
2022/08/22 07:37:02;;;;;;;;;;;18.50;99.90;;;;;;5076533;28;19989;-80
2022/08/22 07:39:35;;;;;;;;;;;18.70;99.90;;;;;;5126940;27;19919;-80
2022/08/22 07:42:06;;;;;;;;;;;18.80;99.90;;;;;;5089309;28;20111;-79
2022/08/22 07:44:51;;;;;;;;;;;18.80;99.90;;;;;;5123593;27;19929;-80
2022/08/22 07:47:19;;;;;;;;;;;19.00;99.90;;;;;;5067137;28;19920;-81
2022/08/22 07:49:51;;;;;;;;;;;19.10;99.90;;;;;;5090344;28;20020;-77
2022/08/22 07:52:17;;;;;;;;;;;19.30;99.90;;;;;;5123600;27;20295;-77
2022/08/22 07:54:42;;;;;;;;;;;19.30;99.90;;;;;;5074956;28;19942;-85
2022/08/22 07:57:11;;;;;;;;;;;19.50;99.90;;;;;;5069905;28;21484;-74
2022/08/22 07:59:41;;;;;;;;;;;19.50;99.90;;;;;;5124573;27;19920;-78
2022/08/22 08:02:09;;;;;;;;;;;19.60;99.90;;;;;;5117396;27;19920;-78
2022/08/22 08:04:36;;;;;;;;;;;19.70;99.90;;;;;;5091583;28;20366;-78
2022/08/22 08:07:04;;;;;;;;;;;19.80;99.90;;;;;;5117951;27;20108;-78
2022/08/22 08:09:31;;;;;;;;;;;19.90;99.90;;;;;;5080013;28;19920;-79
2022/08/22 08:11:58;;;;;;;;;;;20.10;99.90;;;;;;5091837;28;20371;-79
2022/08/22 08:14:24;;;;;;;;;;;20.10;99.90;;;;;;5122565;27;20365;-83
2022/08/22 08:16:56;;;;;;;;;;;20.20;99.90;;;;;;5109523;28;19926;-78
2022/08/22 08:19:21;;;;;;;;;;;20.30;99.90;;;;;;5092693;28;19937;-79
2022/08/22 08:21:49;;;;;;;;;;;20.30;99.90;;;;;;5092281;28;20322;-80
2022/08/22 08:24:21;;;;;;;;;;;20.40;99.90;;;;;;5126649;27;20244;-78
2022/08/22 08:29:41;;;;;;;;;;;20.60;99.90;;;;;;5086864;28;19920;-79
2022/08/22 08:32:09;;;;;;;;;;;20.60;99.90;;;;;;5077817;28;19964;-76
2022/08/22 08:34:36;;;;;;;;;;;20.70;99.90;;;;;;5087989;28;19920;-76
2022/08/22 08:37:16;;;;;;;;;;;20.70;99.90;;;;;;5074382;28;19928;-75
2022/08/22 08:39:43;;;;;;;;;;;20.80;99.90;;;;;;5092315;28;19920;-85
2022/08/22 08:42:15;;;;;;;;;;;20.80;99.90;;;;;;5091689;28;19973;-86
2022/08/22 08:45:00;;;;;;;;;;;20.90;99.90;;;;;;5075415;28;19963;-86
2022/08/22 08:47:25;;;;;;;;;;;20.90;99.90;;;;;;5092087;28;19927;-85
2022/08/22 08:49:51;;;;;;;;;;;21.00;99.90;;;;;;5108973;28;19920;-85
2022/08/22 08:52:35;;;;;;;;;;;21.00;99.90;;;;;;5092324;28;19924;-86
2022/08/22 08:55:01;;;;;;;;;;;21.00;99.90;;;;;;5070866;28;19920;-86
2022/08/22 08:57:32;;;;;;;;;;;21.00;99.90;;;;;;5087623;28;19929;-85
2022/08/22 09:00:16;;;;;;;;;;;21.10;99.90;;;;;;5084991;28;20263;-85
2022/08/22 09:02:44;;;;;;;;;;;21.10;99.90;;;;;;5097599;28;19920;-86
2022/08/22 09:05:14;;;;;;;;;;;21.20;99.90;;;;;;5068061;28;19935;-85
2022/08/22 09:07:58;;;;;;;;;;;21.30;99.90;;;;;;5057588;28;19920;-86
2022/08/22 09:10:42;;;;;;;;;;;21.40;99.90;;;;;;5085014;28;19920;-86
2022/08/22 09:13:35;;;;;;;;;;;21.60;99.90;;;;;;5085578;28;20386;-85
2022/08/22 09:16:10;;;;;;;;;;;21.70;99.90;;;;;;5109921;27;19996;-86
2022/08/22 09:18:41;;;;;;;;;;;21.70;99.90;;;;;;5064450;28;19928;-84
2022/08/22 09:21:07;;;;;;;;;;;21.70;99.90;;;;;;5085180;28;19979;-82
2022/08/22 09:23:51;;;;;;;;;;;21.80;99.90;;;;;;5079484;28;19959;-86
2022/08/22 09:26:44;;;;;;;;;;;21.90;99.90;;;;;;5084915;28;19920;-89
2022/08/22 09:29:29;;;;;;;;;;;21.90;99.90;;;;;;5077010;28;20322;-80
2022/08/22 09:32:06;;;;;;;;;;;21.90;99.90;;;;;;5088370;28;20019;-82
2022/08/22 09:34:34;;;;;;;;;;;22.10;99.90;;;;;;5079577;28;19959;-83
2022/08/22 09:37:15;;;;;;;;;;;22.10;99.90;;;;;;5083657;28;19920;-87
2022/08/22 09:40:04;;;;;;;;;;;22.20;99.90;;;;;;5082895;28;19927;-85
2022/08/22 09:42:38;;;;;;;;;;;22.30;99.90;;;;;;5063960;28;20395;-82
2022/08/22 09:45:10;;;;;;;;;;;22.30;99.90;;;;;;5069140;28;20007;-84
2022/08/22 09:47:43;;;;;;;;;;;22.40;99.90;;;;;;5106370;28;19920;-85
2022/08/22 09:50:18;;;;;;;;;;;22.40;99.90;;;;;;5105904;28;19924;-81
2022/08/22 09:53:02;;;;;;;;;;;22.50;99.90;;;;;;5066980;28;19920;-85
2022/08/22 09:55:52;;;;;;;;;;;22.60;99.90;;;;;;5109421;28;19920;-83
2022/08/22 09:58:25;;;;;;;;;;;22.70;99.90;;;;;;5117110;27;20035;-83
2022/08/22 10:00:59;;;;;;;;;;;22.70;99.90;;;;;;5092161;28;19928;-81
2022/08/22 10:03:47;;;;;;;;;;;22.80;99.90;;;;;;5094839;28;19920;-82
2022/08/22 10:06:18;;;;;;;;;;;23.00;99.90;;;;;;5094741;28;19920;-81
2022/08/22 10:08:49;;;;;;;;;;;23.20;99.90;;;;;;5069213;28;19921;-83
2022/08/22 10:11:21;;;;;;;;;;;23.30;99.90;;;;;;5092318;28;19920;-78
2022/08/22 10:13:47;;;;;;;;;;;23.40;99.90;;;;;;5078050;28;20264;-82
2022/08/22 10:16:15;;;;;;;;;;;23.40;99.90;;;;;;5095106;28;19927;-82
2022/08/22 10:18:44;;;;;;;;;;;23.40;99.90;;;;;;5078454;28;19920;-81
2022/08/22 10:21:10;;;;;;;;;;;23.50;99.90;;;;;;5078173;28;20380;-81
2022/08/22 10:23:51;;;;;;;;;;;23.50;99.90;;;;;;5100299;28;19920;-82
2022/08/22 10:26:30;;;;;;;;;;;23.60;99.90;;;;;;5091123;28;19963;-81
2022/08/22 10:29:04;;;;;;;;;;;23.60;99.90;;;;;;5088304;28;19920;-80
2022/08/22 10:31:32;;;;;;;;;;;23.60;99.90;;;;;;5112653;28;19920;-92
2022/08/22 10:34:04;;;;;;;;;;;23.80;99.90;;;;;;5095307;28;19970;-91
2022/08/22 10:36:33;;;;;;;;;;;23.90;99.90;;;;;;5077922;28;20272;-79
2022/08/22 10:39:02;;;;;;;;;;;24.00;99.90;;;;;;5089260;28;19924;-80
2022/08/22 10:41:52;;;;;;;;;;;24.10;99.90;;;;;;5094075;28;19943;-87
2022/08/22 10:44:23;;;;;;;;;;;24.10;99.90;;;;;;5107991;28;19920;-83
2022/08/22 10:46:53;;;;;;;;;;;24.30;99.90;;;;;;5074962;28;19921;-91
2022/08/22 10:49:42;;;;;;;;;;;24.30;99.90;;;;;;5126736;27;20069;-83
2022/08/22 10:52:07;;;;;;;;;;;24.40;99.90;;;;;;5081270;28;19932;-83
2022/08/22 10:54:40;;;;;;;;;;;24.50;99.90;;;;;;5077007;28;19942;-83
2022/08/22 10:57:06;;;;;;;;;;;24.60;99.90;;;;;;5093877;28;20002;-84
2022/08/22 10:59:31;;;;;;;;;;;24.70;99.90;;;;;;5076898;28;19920;-82
2022/08/22 11:02:10;;;;;;;;;;;24.80;99.90;;;;;;5093422;28;19920;-82
2022/08/22 11:04:41;;;;;;;;;;;24.90;99.90;;;;;;5093808;28;19973;-82
2022/08/22 11:07:19;;;;;;;;;;;24.90;99.90;;;;;;5091476;28;19924;-85
2022/08/22 11:09:47;;;;;;;;;;;25.00;99.90;;;;;;5104784;27;19928;-86
2022/08/22 11:12:33;;;;;;;;;;;25.10;99.90;;;;;;5085222;28;19921;-86
2022/08/22 11:15:13;;;;;;;;;;;25.10;99.70;;;;;;5072514;28;20271;-79
2022/08/22 11:17:57;;;;;;;;;;;25.30;99.70;;;;;;5108900;27;20386;-80
2022/08/22 11:20:25;;;;;;;;;;;25.40;98.50;;;;;;5090160;28;19969;-79
2022/08/22 11:22:54;;;;;;;;;;;25.50;98.30;;;;;;5103750;28;19976;-79
2022/08/22 11:25:25;;;;;;;;;;;25.80;99.40;;;;;;5092515;28;19969;-79
2022/08/22 11:28:10;;;;;;;;;;;26.00;98.10;;;;;;5090027;28;19920;-79
2022/08/22 11:30:43;;;;;;;;;;;26.30;98.10;;;;;;5093022;28;20283;-79
2022/08/22 11:33:12;;;;;;;;;;;26.70;98.20;;;;;;5103187;28;19924;-80
2022/08/22 11:35:58;;;;;;;;;;;26.90;97.50;;;;;;5098719;28;19923;-79
2022/08/22 11:38:53;;;;;;;;;;;27.30;97.40;;;;;;5094955;28;19920;-79
2022/08/22 11:41:37;;;;;;;;;;;26.80;97.10;;;;;;5078299;28;19942;-79
2022/08/22 11:44:09;;;;;;;;;;;26.70;96.90;;;;;;5076248;28;19920;-78
2022/08/22 11:46:36;;;;;;;;;;;27.30;97.60;;;;;;5092635;28;19920;-79
2022/08/22 11:49:21;;;;;;;;;;;27.70;96.80;;;;;;5093593;28;19920;-78
2022/08/22 11:51:59;;;;;;;;;;;28.00;97.40;;;;;;5091954;28;19924;-77
2022/08/22 11:54:30;;;;;;;;;;;27.60;96.00;;;;;;5092545;28;19920;-77
2022/08/22 11:57:07;;;;;;;;;;;27.20;96.80;;;;;;5126542;27;20362;-77
2022/08/22 11:59:52;;;;;;;;;;;26.80;97.10;;;;;;5093022;28;19924;-78
2022/08/22 12:02:23;;;;;;;;;;;26.50;97.10;;;;;;5069681;28;19938;-74
2022/08/22 12:04:55;;;;;;;;;;;26.20;97.40;;;;;;5075238;28;19986;-79
2022/08/22 12:07:23;;;;;;;;;;;25.90;97.90;;;;;;5098212;28;19958;-76
2022/08/22 12:10:01;;;;;;;;;;;25.80;98.40;;;;;;5106566;28;19920;-76
2022/08/22 12:12:41;;;;;;;;;;;25.90;97.90;;;;;;5088994;28;19928;-76
2022/08/22 12:15:14;;;;;;;;;;;25.80;97.50;;;;;;5089244;28;19979;-77
2022/08/22 12:17:53;;;;;;;;;;;25.70;99.90;;;;;;5089190;28;19920;-77
2022/08/22 12:20:24;;;;;;;;;;;25.50;98.30;;;;;;5072745;28;20036;-77
2022/08/22 12:22:56;;;;;;;;;;;25.40;99.00;;;;;;5071853;28;19920;-76
2022/08/22 12:25:31;;;;;;;;;;;25.70;98.40;;;;;;5083111;28;20309;-76
2022/08/22 12:28:16;;;;;;;;;;;25.70;98.50;;;;;;5081732;28;19942;-76
2022/08/22 12:31:00;;;;;;;;;;;25.60;98.80;;;;;;5081983;28;19924;-81
2022/08/22 12:33:26;;;;;;;;;;;25.50;98.70;;;;;;5100901;28;20364;-80
2022/08/22 12:36:10;;;;;;;;;;;25.50;98.70;;;;;;5114361;27;19930;-81
2022/08/22 12:38:51;;;;;;;;;;;25.40;99.90;;;;;;5084214;28;19924;-80
2022/08/22 12:41:35;;;;;;;;;;;25.40;98.40;;;;;;5071874;28;19924;-81
2022/08/22 12:44:13;;;;;;;;;;;25.30;99.90;;;;;;5084894;28;19924;-81
2022/08/22 12:46:39;;;;;;;;;;;25.60;99.90;;;;;;5105661;28;19925;-81
2022/08/22 12:49:10;;;;;;;;;;;26.40;99.90;;;;;;5107766;28;19965;-81
2022/08/22 12:51:55;;;;;;;;;;;26.60;99.40;;;;;;5085669;28;20396;-81
2022/08/22 12:54:39;;;;;;;;;;;26.50;99.00;;;;;;5089142;28;20290;-81
2022/08/22 12:57:17;;;;;;;;;;;26.80;99.20;;;;;;5091468;28;20228;-80
2022/08/22 12:59:45;;;;;;;;;;;27.60;98.20;;;;;;5087233;28;19978;-81
2022/08/22 13:02:22;;;;;;;;;;;28.40;98.30;;;;;;5070940;28;20016;-81
2022/08/22 13:04:51;;;;;;;;;;;28.40;98.10;;;;;;5083452;28;19920;-82
2022/08/22 13:07:20;;;;;;;;;;;28.40;97.60;;;;;;5080472;28;19934;-79
2022/08/22 13:10:09;;;;;;;;;;;28.80;98.20;;;;;;5111300;28;20287;-85
2022/08/22 13:12:38;;;;;;;;;;;28.70;97.40;;;;;;5084680;28;19969;-83
2022/08/22 13:15:27;;;;;;;;;;;28.50;96.80;;;;;;5108744;28;19924;-82
2022/08/22 13:17:53;;;;;;;;;;;28.60;97.70;;;;;;5089742;28;19928;-85
2022/08/22 13:20:25;;;;;;;;;;;28.30;97.80;;;;;;5110777;28;19924;-87
2022/08/22 13:22:51;;;;;;;;;;;28.00;97.70;;;;;;5075911;28;19924;-82
2022/08/22 13:25:27;;;;;;;;;;;27.70;97.70;;;;;;5101613;28;19928;-84
2022/08/22 13:27:58;;;;;;;;;;;27.30;98.10;;;;;;5110391;28;19920;-84
2022/08/22 13:30:23;;;;;;;;;;;27.00;98.80;;;;;;5092797;28;19920;-83
2022/08/22 13:32:51;;;;;;;;;;;27.40;99.30;;;;;;5120900;27;19931;-84
2022/08/22 13:35:29;;;;;;;;;;;28.00;99.10;;;;;;5087599;28;19928;-80
2022/08/22 13:38:01;;;;;;;;;;;28.00;98.40;;;;;;5072356;28;19981;-79
2022/08/22 13:40:28;;;;;;;;;;;27.70;98.10;;;;;;5121307;27;19928;-81
2022/08/22 13:43:01;;;;;;;;;;;27.30;98.30;;;;;;5111643;28;19920;-82
2022/08/22 13:45:28;;;;;;;;;;;27.00;98.80;;;;;;5100714;28;20380;-83
2022/08/22 13:47:56;;;;;;;;;;;27.00;99.40;;;;;;5109619;28;19924;-84
2022/08/22 13:50:23;;;;;;;;;;;27.70;99.60;;;;;;5092801;28;19959;-82
2022/08/22 13:52:56;;;;;;;;;;;28.70;98.30;;;;;;5081026;28;19924;-84
2022/08/22 13:55:42;;;;;;;;;;;29.30;96.90;;;;;;5097687;28;19931;-84
2022/08/22 13:58:10;;;;;;;;;;;29.50;97.70;;;;;;5129688;27;19924;-84
2022/08/22 14:01:00;;;;;;;;;;;29.00;97.60;;;;;;5106266;28;19981;-84
2022/08/22 14:03:38;;;;;;;;;;;28.90;97.10;;;;;;5092917;28;19924;-85
2022/08/22 14:06:09;;;;;;;;;;;28.90;96.90;;;;;;5126891;27;19978;-85
2022/08/22 14:08:35;;;;;;;;;;;28.70;96.80;;;;;;5126680;27;19932;-83
2022/08/22 14:11:07;;;;;;;;;;;28.30;97.30;;;;;;5110882;28;19951;-89
2022/08/22 14:13:51;;;;;;;;;;;28.00;97.90;;;;;;5099080;28;20360;-89
2022/08/22 14:16:26;;;;;;;;;;;28.40;98.80;;;;;;5110577;28;19923;-86
2022/08/22 14:18:54;;;;;;;;;;;28.30;98.50;;;;;;5092920;28;19920;-82
2022/08/22 14:21:29;;;;;;;;;;;28.30;98.10;;;;;;5093693;28;19931;-82
2022/08/22 14:23:57;;;;;;;;;;;28.70;98.00;;;;;;5107758;28;19924;-83
2022/08/22 14:26:24;;;;;;;;;;;29.60;97.80;;;;;;5109874;28;19971;-83
2022/08/22 14:28:53;;;;;;;;;;;30.50;96.80;;;;;;5093979;28;20307;-84
2022/08/22 14:31:21;;;;;;;;;;;30.70;95.70;;;;;;5112716;28;20442;-85
2022/08/22 14:33:53;;;;;;;;;;;30.40;95.90;;;;;;5093427;28;19928;-86
2022/08/22 14:36:42;;;;;;;;;;;29.70;95.30;;;;;;5092400;28;19967;-85
2022/08/22 14:39:10;;;;;;;;;;;29.00;96.10;;;;;;5071438;28;20283;-85
2022/08/22 14:41:39;;;;;;;;;;;28.20;96.30;;;;;;5109322;28;19965;-84
2022/08/22 14:44:08;;;;;;;;;;;28.30;97.60;;;;;;5094817;28;19920;-84
2022/08/22 14:46:42;;;;;;;;;;;28.00;96.80;;;;;;5093986;28;19920;-86
2022/08/22 14:49:12;;;;;;;;;;;28.00;97.40;;;;;;5107675;28;19924;-84
2022/08/22 14:51:38;;;;;;;;;;;27.90;97.90;;;;;;5114259;28;19996;-86
2022/08/22 14:54:09;;;;;;;;;;;28.40;98.20;;;;;;5064445;28;20360;-84
2022/08/22 14:56:35;;;;;;;;;;;29.10;97.00;;;;;;5081781;28;19920;-82